Time;durP1;ratioP1;P1;durP2;ratioP2;P2;SDS_P1;SDS_P2;PMS_P1;PMS_P2;Temp;Humidity;BMP_temperature;BMP_pressure;BME280_temperature;BME280_humidity;BME280_pressure;Samples;Min_cycle;Max_cycle;Signal;HPM_P1;HPM_P2
2022/05/07 00:00:23;;;;;;;9.73;7.25;;;;;;;12.03;100.00;99970.22;4995639;28;20199;-76
2022/05/07 00:02:51;;;;;;;12.63;7.20;;;;;;;12.00;100.00;99973.06;4995560;28;20191;-75
2022/05/07 00:05:19;;;;;;;9.63;6.95;;;;;;;12.14;100.00;99984.91;4995940;28;20190;-76
2022/05/07 00:07:46;;;;;;;9.60;7.82;;;;;;;12.07;100.00;99970.88;4995750;28;20203;-76
2022/05/07 00:10:12;;;;;;;11.18;7.55;;;;;;;12.00;100.00;99973.06;4995546;28;20631;-75
2022/05/07 00:12:39;;;;;;;10.05;8.18;;;;;;;11.97;100.00;99983.19;4994801;28;20192;-75
2022/05/07 00:15:07;;;;;;;9.20;7.45;;;;;;;12.08;100.00;99973.50;4995205;28;20235;-77
2022/05/07 00:20:19;;;;;;;7.47;6.22;;;;;;;12.12;100.00;99971.50;4995543;28;20239;-75
2022/05/07 00:22:46;;;;;;;8.13;7.05;;;;;;;12.08;100.00;99972.66;4995820;28;20956;-75
2022/05/07 00:25:12;;;;;;;9.65;7.38;;;;;;;12.03;100.00;99967.53;4995640;28;20206;-76
2022/05/07 00:27:39;;;;;;;9.80;6.65;;;;;;;11.94;100.00;99975.25;4994831;28;20274;-76
2022/05/07 00:30:08;;;;;;;8.77;7.13;;;;;;;11.91;100.00;99975.44;4995362;28;20725;-75
2022/05/07 00:32:35;;;;;;;10.35;7.85;;;;;;;12.06;100.00;99971.88;4994886;28;20294;-76
2022/05/07 00:35:01;;;;;;;11.27;7.63;;;;;;;11.99;100.00;99968.66;4995206;28;20212;-75
2022/05/07 00:37:29;;;;;;;10.05;6.82;;;;;;;11.99;100.00;99970.50;4994950;28;20294;-75
2022/05/07 00:39:56;;;;;;;9.75;7.32;;;;;;;12.25;100.00;99964.41;4994756;28;20194;-75
2022/05/07 00:42:22;;;;;;;7.40;6.18;;;;;;;12.41;100.00;99961.66;4995169;28;20386;-75
2022/05/07 00:44:49;;;;;;;7.45;5.90;;;;;;;12.38;100.00;99967.25;4975686;28;20223;-76
2022/05/07 00:47:23;;;;;;;6.45;5.85;;;;;;;12.29;100.00;99968.66;4994330;28;20198;-76
2022/05/07 00:49:51;;;;;;;6.75;6.13;;;;;;;12.39;100.00;99968.13;4994700;28;20634;-75
2022/05/07 00:52:18;;;;;;;6.00;5.45;;;;;;;12.39;100.00;99974.41;4994131;28;20207;-75
2022/05/07 00:54:47;;;;;;;8.50;6.65;;;;;;;12.26;100.00;99968.88;4995049;28;20249;-76
2022/05/07 00:57:15;;;;;;;10.35;7.38;;;;;;;12.11;100.00;99969.75;4994416;28;20200;-75
2022/05/07 00:59:42;;;;;;;8.32;7.40;;;;;;;11.83;100.00;99965.06;4994680;28;20215;-76
2022/05/07 01:02:09;;;;;;;9.75;7.03;;;;;;;11.66;100.00;99964.19;4994923;28;20187;-77
2022/05/07 01:04:36;;;;;;;11.70;7.68;;;;;;;11.44;100.00;99964.56;4994469;28;20200;-76
2022/05/07 01:07:03;;;;;;;9.43;7.63;;;;;;;11.32;100.00;99956.25;4994865;28;20513;-75
2022/05/07 01:09:30;;;;;;;13.65;8.20;;;;;;;11.19;100.00;99961.44;4993552;28;20287;-74
2022/05/07 01:11:58;;;;;;;8.15;7.25;;;;;;;11.16;100.00;99959.81;4994430;28;20563;-74
2022/05/07 01:14:25;;;;;;;11.68;7.85;;;;;;;11.00;100.00;99962.47;4993336;28;20253;-76
2022/05/07 01:16:52;;;;;;;11.93;8.80;;;;;;;11.01;100.00;99960.63;4994519;28;20187;-77
2022/05/07 01:19:19;;;;;;;9.55;8.23;;;;;;;10.92;100.00;99953.94;4993984;28;20203;-76
2022/05/07 01:21:46;;;;;;;8.07;7.22;;;;;;;10.92;100.00;99950.34;4994113;28;20195;-75
2022/05/07 01:24:13;;;;;;;10.48;7.38;;;;;;;10.85;100.00;99960.59;4993646;28;20210;-76
2022/05/07 01:26:40;;;;;;;8.85;7.80;;;;;;;11.06;100.00;99958.56;4994093;28;20190;-76
2022/05/07 01:29:08;;;;;;;7.25;6.55;;;;;;;11.04;100.00;99960.47;4993599;28;20187;-76
2022/05/07 01:31:34;;;;;;;7.10;6.25;;;;;;;10.87;100.00;99944.34;4994181;28;20216;-77
2022/05/07 01:34:01;;;;;;;7.35;6.65;;;;;;;10.84;100.00;99950.78;4993850;28;20207;-77
2022/05/07 01:36:28;;;;;;;9.60;7.20;;;;;;;10.82;100.00;99953.53;4993756;28;20555;-75
2022/05/07 01:38:55;;;;;;;9.65;6.97;;;;;;;10.90;100.00;99958.53;4993418;28;20264;-77
2022/05/07 01:41:22;;;;;;;8.60;6.63;;;;;;;11.01;100.00;99950.75;4993527;28;20630;-76
2022/05/07 01:43:49;;;;;;;8.70;7.60;;;;;;;11.06;100.00;99950.50;4993876;28;20673;-76
2022/05/07 01:49:00;;;;;;;8.35;7.50;;;;;;;11.00;100.00;99956.22;4993291;28;20194;-75
2022/05/07 01:51:27;;;;;;;10.85;7.50;;;;;;;10.94;100.00;99945.75;4993203;28;20190;-75
2022/05/07 01:53:53;;;;;;;9.88;8.02;;;;;;;10.75;100.00;99948.56;4993624;28;20536;-76
2022/05/07 01:56:21;;;;;;;13.93;7.70;;;;;;;10.75;100.00;99944.06;4993072;28;20210;-76
2022/05/07 01:58:49;;;;;;;9.60;7.65;;;;;;;10.57;100.00;99947.72;4993564;28;20199;-76
2022/05/07 02:01:15;;;;;;;8.23;7.30;;;;;;;10.59;100.00;99952.06;4993531;28;20560;-75
2022/05/07 02:03:42;;;;;;;11.13;8.20;;;;;;;10.53;100.00;99955.06;4993345;28;20734;-75
2022/05/07 02:06:09;;;;;;;8.20;7.38;;;;;;;10.64;100.00;99957.22;4993709;28;20198;-75
2022/05/07 02:08:35;;;;;;;13.70;7.65;;;;;;;10.69;100.00;99947.06;4993227;28;20203;-76
2022/05/07 02:11:02;;;;;;;8.48;7.65;;;;;;;10.53;100.00;99949.69;4992981;28;20188;-75
2022/05/07 02:13:30;;;;;;;7.82;7.10;;;;;;;10.41;100.00;99939.59;4993177;28;20194;-76
2022/05/07 02:15:57;;;;;;;9.73;7.50;;;;;;;10.47;100.00;99947.34;4992880;28;20211;-76
2022/05/07 02:18:23;;;;;;;10.70;7.97;;;;;;;10.32;100.00;99943.63;4993422;28;20243;-76
2022/05/07 02:20:50;;;;;;;9.38;8.00;;;;;;;10.36;100.00;99947.91;4992890;28;20191;-76
2022/05/07 02:23:17;;;;;;;7.75;6.95;;;;;;;10.28;100.00;99950.06;4993342;28;20602;-76
2022/05/07 02:25:44;;;;;;;10.50;8.77;;;;;;;10.22;100.00;99950.38;4992659;28;20188;-76
2022/05/07 02:28:10;;;;;;;9.48;8.18;;;;;;;10.31;100.00;99949.97;4993227;28;20202;-76
2022/05/07 02:30:38;;;;;;;9.52;8.27;;;;;;;10.42;100.00;99952.97;4992343;28;20202;-75
2022/05/07 02:33:05;;;;;;;9.63;7.72;;;;;;;10.55;100.00;99942.41;4993342;28;20187;-75
2022/05/07 02:35:32;;;;;;;9.68;7.82;;;;;;;10.51;100.00;99948.03;4992459;28;20210;-75
2022/05/07 02:37:59;;;;;;;9.10;7.90;;;;;;;10.38;100.00;99954.06;4992848;28;20302;-75
2022/05/07 02:40:25;;;;;;;12.60;8.43;;;;;;;10.33;100.00;99949.88;4993112;28;20649;-75
2022/05/07 02:42:51;;;;;;;8.55;7.65;;;;;;;10.25;100.00;99952.94;4993396;28;20515;-75
2022/05/07 02:45:17;;;;;;;7.80;7.10;;;;;;;10.22;100.00;99955.75;4993074;28;20206;-75
2022/05/07 02:47:45;;;;;;;10.35;7.90;;;;;;;10.20;100.00;99957.69;4993104;28;20547;-75
2022/05/07 02:50:12;;;;;;;9.77;8.77;;;;;;;10.28;100.00;99955.44;4993051;28;20185;-75
2022/05/07 02:52:39;;;;;;;9.52;8.20;;;;;;;10.12;100.00;99947.28;4992659;28;20207;-76
2022/05/07 02:55:09;;;;;;;8.55;7.75;;;;;;;10.11;100.00;99947.38;4992898;28;20238;-76
2022/05/07 02:57:35;;;;;;;12.57;7.50;;;;;;;10.12;100.00;99947.28;4992827;28;20210;-76
2022/05/07 03:00:03;;;;;;;9.75;7.93;;;;;;;10.06;100.00;99939.53;4992649;28;20214;-76
2022/05/07 03:02:31;;;;;;;8.38;7.47;;;;;;;9.90;100.00;99943.94;4992036;28;20194;-76
2022/05/07 03:04:59;;;;;;;9.55;8.60;;;;;;;9.83;100.00;99937.97;4993079;28;20187;-75
2022/05/07 03:07:26;;;;;;;9.95;8.95;;;;;;;9.85;100.00;99940.59;4992478;28;20211;-75
2022/05/07 03:09:52;;;;;;;9.05;7.90;;;;;;;9.71;100.00;99936.78;4992908;28;20544;-75
2022/05/07 03:12:19;;;;;;;9.80;8.60;;;;;;;9.81;100.00;99939.88;4992738;28;20556;-75
2022/05/07 03:14:45;;;;;;;9.60;8.60;;;;;;;9.75;100.00;99945.59;4992222;28;20307;-75
2022/05/07 03:17:12;;;;;;;11.43;8.23;;;;;;;9.74;100.00;99941.13;4991583;28;20203;-76
2022/05/07 03:19:38;;;;;;;9.38;8.38;;;;;;;9.86;100.00;99937.84;4992592;28;20664;-76
2022/05/07 03:22:06;;;;;;;10.65;8.43;;;;;;;10.05;100.00;99945.00;4993049;28;20185;-75
2022/05/07 03:24:37;;;;;;;13.48;8.68;;;;;;;10.21;100.00;99945.94;4992441;28;20201;-75
2022/05/07 03:27:05;;;;;;;10.02;8.48;;;;;;;10.21;100.00;99941.44;4992570;28;20737;-76
2022/05/07 03:29:31;;;;;;;13.63;8.55;;;;;;;10.22;100.00;99940.50;4992874;28;20274;-75
2022/05/07 03:31:58;;;;;;;10.68;8.23;;;;;;;10.23;100.00;99944.06;4991758;28;20556;-75
2022/05/07 03:34:24;;;;;;;10.73;8.52;;;;;;;10.09;100.00;99950.16;4992333;28;20188;-77
2022/05/07 03:36:51;;;;;;;12.63;8.80;;;;;;;10.11;100.00;99947.38;4992359;28;20197;-76
2022/05/07 03:39:19;;;;;;;9.27;8.32;;;;;;;10.00;100.00;99943.41;4992583;28;20210;-77
2022/05/07 03:41:46;;;;;;;12.90;8.55;;;;;;;9.88;100.00;99937.75;4992729;28;20190;-76
2022/05/07 03:44:12;;;;;;;8.48;7.68;;;;;;;9.77;100.00;99941.88;4992585;28;20502;-76
2022/05/07 03:46:39;;;;;;;9.98;7.97;;;;;;;9.92;100.00;99939.34;4992543;28;20193;-76
2022/05/07 03:49:05;;;;;;;10.60;8.48;;;;;;;10.02;100.00;99937.97;4996045;28;20618;-77
2022/05/07 03:53:29;;;;;;;11.93;8.40;;;;;;;10.06;100.00;99939.53;4996028;28;20213;-75
2022/05/07 03:54:19;;;;;;;10.00;9.00;;;;;;;9.92;100.00;99942.91;4995626;28;20192;-76
2022/05/07 03:56:46;;;;;;;10.65;9.00;;;;;;;9.82;100.00;99939.81;4996065;28;20286;-75
2022/05/07 03:59:13;;;;;;;9.93;8.55;;;;;;;9.77;100.00;99936.50;4995450;28;20217;-76
2022/05/07 04:01:39;;;;;;;13.43;8.10;;;;;;;9.69;100.00;99941.34;4995347;28;20278;-76
2022/05/07 04:04:06;;;;;;;10.63;8.80;;;;;;;9.63;100.00;99936.28;4995560;28;20550;-76
2022/05/07 04:06:32;;;;;;;10.50;9.10;;;;;;;9.52;100.00;99949.38;4995685;28;20626;-75
2022/05/07 04:08:59;;;;;;;9.27;8.35;;;;;;;9.39;100.00;99944.59;4995259;28;20588;-75
2022/05/07 04:11:27;;;;;;;16.30;8.80;;;;;;;9.32;100.00;99939.59;4995824;28;20541;-75
2022/05/07 04:13:53;;;;;;;10.35;9.35;;;;;;;9.26;100.00;99940.75;4995109;28;20238;-76
2022/05/07 04:16:20;;;;;;;14.00;9.90;;;;;;;9.20;100.00;99938.34;4995233;28;20206;-76
2022/05/07 04:18:46;;;;;;;15.20;9.25;;;;;;;9.34;100.00;99938.56;4976329;28;20195;-75
2022/05/07 04:21:13;;;;;;;11.73;10.30;;;;;;;9.37;100.00;99935.72;4976265;28;20616;-77
2022/05/07 04:23:39;;;;;;;13.32;9.57;;;;;;;9.33;100.00;99939.50;4976223;28;20206;-76
2022/05/07 04:26:06;;;;;;;13.98;9.75;;;;;;;9.50;100.00;99935.16;4976100;28;20348;-74
2022/05/07 04:28:34;;;;;;;11.15;9.15;;;;;;;9.64;100.00;99939.84;4975625;28;20287;-77
2022/05/07 04:31:00;;;;;;;11.50;9.50;;;;;;;9.85;100.00;99933.41;4981968;28;20199;-75
2022/05/07 04:33:27;;;;;;;10.75;8.85;;;;;;;9.88;100.00;99940.44;4994962;28;20196;-77
2022/05/07 04:35:54;;;;;;;11.48;9.57;;;;;;;9.67;100.00;99940.56;4995472;28;20317;-75
2022/05/07 04:38:20;;;;;;;12.77;10.23;;;;;;;9.54;100.00;99931.34;4995422;28;20610;-75
2022/05/07 04:40:47;;;;;;;11.70;9.57;;;;;;;9.64;100.00;99932.66;4995202;28;20285;-75
2022/05/07 04:43:15;;;;;;;11.20;10.10;;;;;;;9.70;100.00;99929.69;4994827;28;20206;-76
2022/05/07 04:45:43;;;;;;;10.85;9.40;;;;;;;9.86;100.00;99945.03;4992879;28;20262;-76
2022/05/07 04:48:10;;;;;;;12.23;9.90;;;;;;;9.73;100.00;99945.66;4975552;28;20691;-76
2022/05/07 04:50:36;;;;;;;13.38;10.23;;;;;;;9.94;100.00;99948.22;4982953;28;20198;-76
2022/05/07 04:53:05;;;;;;;15.10;9.73;;;;;;;10.03;100.00;99937.00;4995222;28;20187;-76
2022/05/07 04:55:31;;;;;;;13.23;10.43;;;;;;;10.00;100.00;99946.09;4994952;28;20197;-76
2022/05/07 04:57:58;;;;;;;9.75;8.75;;;;;;;10.02;100.00;99948.72;4994778;28;20549;-76
2022/05/07 05:00:25;;;;;;;10.45;9.50;;;;;;;10.02;100.00;99949.59;4994387;28;20561;-76
2022/05/07 05:02:53;;;;;;;10.32;8.70;;;;;;;10.12;100.00;99949.97;4989516;28;20327;-75
2022/05/07 05:05:19;;;;;;;10.48;9.38;;;;;;;10.23;100.00;99953.00;4994190;28;20233;-76
2022/05/07 05:07:46;;;;;;;11.75;10.05;;;;;;;10.09;100.00;99955.53;4994706;28;20619;-75
2022/05/07 05:10:13;;;;;;;10.15;8.85;;;;;;;10.28;100.00;99947.38;4994866;28;20548;-76
2022/05/07 05:12:39;;;;;;;11.38;9.85;;;;;;;10.14;100.00;99952.59;4994879;28;20623;-76
2022/05/07 05:15:08;;;;;;;10.63;9.57;;;;;;;10.05;100.00;99962.00;4994259;28;20232;-76
2022/05/07 05:17:37;;;;;;;10.15;8.82;;;;;;;9.95;100.00;99963.41;4979909;28;20207;-76
2022/05/07 05:20:06;;;;;;;11.15;10.05;;;;;;;10.14;100.00;99966.91;4974989;28;20462;-77
2022/05/07 05:22:33;;;;;;;12.63;10.10;;;;;;;10.26;100.00;99961.88;4976267;28;20217;-75
2022/05/07 05:24:59;;;;;;;11.55;10.20;;;;;;;10.32;100.00;99966.97;4994213;28;20190;-75
2022/05/07 05:27:26;;;;;;;12.60;10.85;;;;;;;10.37;100.00;99960.38;4984274;28;20534;-76
2022/05/07 05:29:53;;;;;;;13.73;10.82;;;;;;;10.50;100.00;99962.47;4974624;28;20228;-75
2022/05/07 05:32:19;;;;;;;14.00;10.15;;;;;;;10.58;100.00;99957.53;4979439;28;20279;-76
2022/05/07 05:34:47;;;;;;;10.00;9.00;;;;;;;10.76;100.00;99963.78;4984533;28;20657;-77
2022/05/07 05:37:16;;;;;;;12.70;9.82;;;;;;;10.82;100.00;99974.22;4991645;28;20194;-76
2022/05/07 05:39:43;;;;;;;13.55;10.75;;;;;;;10.93;100.00;99963.75;4983457;28;20211;-76
2022/05/07 05:42:10;;;;;;;12.60;10.63;;;;;;;10.95;100.00;99961.84;4974625;28;20275;-76
2022/05/07 05:44:38;;;;;;;12.07;10.95;;;;;;;11.15;100.00;99958.06;4974780;28;20195;-76
2022/05/07 05:47:05;;;;;;;20.40;15.52;;;;;;;11.20;100.00;99958.69;4974317;28;20256;-75
2022/05/07 05:49:33;;;;;;;30.58;21.50;;;;;;;11.57;100.00;99963.84;4975860;28;20200;-76
2022/05/07 05:52:00;;;;;;;36.17;23.20;;;;;;;11.73;100.00;99964.72;4985340;28;20251;-76
2022/05/07 05:54:28;;;;;;;33.10;23.30;;;;;;;11.94;100.00;99961.75;4974669;28;20666;-76
2022/05/07 05:56:55;;;;;;;28.27;20.92;;;;;;;12.06;100.00;99969.16;4974138;28;20279;-75
2022/05/07 05:59:22;;;;;;;45.10;28.85;;;;;;;12.25;100.00;99961.72;4974049;28;20286;-76
2022/05/07 06:01:48;;;;;;;37.22;25.27;;;;;;;12.31;100.00;99955.09;4974116;28;20517;-76
2022/05/07 06:04:15;;;;;;;36.88;24.15;;;;;;;12.42;100.00;99959.84;4974782;28;20198;-76
2022/05/07 06:06:42;;;;;;;20.85;16.65;;;;;;;12.63;100.00;99969.34;4974425;28;20700;-76
2022/05/07 06:09:08;;;;;;;35.83;26.25;;;;;;;12.69;100.00;99958.19;4991140;28;20195;-76
2022/05/07 06:11:36;;;;;;;43.50;27.85;;;;;;;12.74;100.00;99968.69;4993326;28;20192;-76
2022/05/07 06:14:03;;;;;;;22.92;17.90;;;;;;;12.87;100.00;99963.41;4992846;28;20327;-75
2022/05/07 06:16:30;;;;;;;12.82;11.48;;;;;;;13.08;100.00;99972.03;4993340;28;20185;-76
2022/05/07 06:18:56;;;;;;;20.52;15.35;;;;;;;13.23;100.00;99965.66;4993390;28;20634;-75
2022/05/07 06:21:23;;;;;;;25.05;17.17;;;;;;;13.25;99.39;99968.25;4993139;28;20302;-75
2022/05/07 06:23:50;;;;;;;23.23;16.55;;;;;;;13.54;97.65;99969.13;4993278;28;20189;-75
2022/05/07 06:29:02;;;;;;;18.77;15.23;;;;;;;13.45;94.52;99969.72;4993305;28;20531;-76
2022/05/07 06:31:29;;;;;;;19.00;16.23;;;;;;;13.62;94.22;99974.91;4992787;28;20612;-75
2022/05/07 06:33:56;;;;;;;24.60;17.13;;;;;;;13.99;91.34;99975.19;4992843;28;20201;-75
2022/05/07 06:36:22;;;;;;;14.90;13.40;;;;;;;14.41;85.73;99980.56;4993169;28;20202;-76
2022/05/07 06:38:49;;;;;;;20.15;17.75;;;;;;;14.41;86.20;99977.84;4992654;28;20197;-76
2022/05/07 06:41:16;;;;;;;16.40;14.85;;;;;;;14.67;83.70;99982.34;4992673;28;20207;-76
2022/05/07 06:43:42;;;;;;;16.92;15.13;;;;;;;14.60;84.36;99981.91;4992726;28;20275;-76
2022/05/07 06:46:10;;;;;;;16.95;15.25;;;;;;;14.83;82.25;99976.75;4992536;28;20222;-76
2022/05/07 06:48:37;;;;;;;17.83;14.70;;;;;;;15.04;80.67;99976.19;4993281;28;20197;-75
2022/05/07 06:51:03;;;;;;;16.23;14.52;;;;;;;15.10;79.65;99973.94;4993123;28;20190;-76
2022/05/07 06:53:30;;;;;;;17.58;15.63;;;;;;;15.25;79.21;99971.97;4993217;28;20197;-75
2022/05/07 06:55:58;;;;;;;18.67;16.20;;;;;;;15.49;77.97;99969.34;4992538;28;20201;-77
2022/05/07 06:58:27;;;;;;;21.40;17.65;;;;;;;15.69;77.39;99973.28;4992504;28;20259;-75
2022/05/07 07:00:54;;;;;;;17.75;15.95;;;;;;;15.77;76.06;99967.34;4990270;28;20201;-76
2022/05/07 07:03:23;;;;;;;17.08;15.27;;;;;;;15.83;74.94;99969.63;4992929;28;20681;-78
2022/05/07 07:05:50;;;;;;;16.67;15.00;;;;;;;15.80;75.52;99972.53;4993180;28;20213;-76
2022/05/07 07:08:17;;;;;;;17.70;15.90;;;;;;;15.98;74.02;99968.47;4992372;28;20210;-77
2022/05/07 07:10:45;;;;;;;18.00;16.10;;;;;;;15.84;74.13;99965.91;4992046;28;20201;-77
2022/05/07 07:13:11;;;;;;;20.52;16.55;;;;;;;16.28;72.49;99967.16;4993076;28;20241;-76
2022/05/07 07:15:39;;;;;;;18.95;15.57;;;;;;;16.57;70.51;99972.19;4992730;28;20602;-77
2022/05/07 07:18:09;;;;;;;18.42;16.58;;;;;;;16.72;70.03;99971.00;4992899;28;20557;-76
2022/05/07 07:20:38;;;;;;;19.02;17.02;;;;;;;17.02;68.08;99965.03;4993531;28;20192;-75
2022/05/07 07:23:05;;;;;;;21.17;17.50;;;;;;;17.22;67.01;99968.03;4995141;28;20211;-75
2022/05/07 07:25:32;;;;;;;19.90;17.45;;;;;;;17.43;66.06;99962.72;4979684;28;20192;-76
2022/05/07 07:27:59;;;;;;;18.30;16.33;;;;;;;17.65;64.96;99962.69;4978730;28;20528;-75
2022/05/07 07:30:25;;;;;;;21.85;18.63;;;;;;;17.84;63.92;99974.81;4996433;28;20279;-76
2022/05/07 07:32:52;;;;;;;22.10;17.63;;;;;;;17.84;64.49;99967.53;4996135;28;20218;-76
2022/05/07 07:35:18;;;;;;;19.80;17.02;;;;;;;17.95;63.90;99963.91;4996290;28;20276;-76
2022/05/07 07:37:46;;;;;;;18.58;16.52;;;;;;;17.81;64.21;99970.50;4996671;28;20278;-78
2022/05/07 07:40:13;;;;;;;16.33;14.82;;;;;;;18.21;63.02;99974.50;4996781;28;20281;-76
2022/05/07 07:42:41;;;;;;;21.73;17.17;;;;;;;18.50;62.04;99974.78;4995393;28;20263;-75
2022/05/07 07:47:59;;;;;;;17.77;15.88;;;;;;;18.94;59.86;99968.22;4995164;28;20665;-76
2022/05/07 07:50:29;;;;;;;16.70;15.20;;;;;;;18.91;59.91;99971.22;4996409;28;20588;-76
2022/05/07 07:52:59;;;;;;;17.95;16.20;;;;;;;19.02;59.56;99973.03;4995600;28;20211;-75
2022/05/07 07:55:25;;;;;;;17.67;15.98;;;;;;;19.02;59.30;99966.72;4995808;28;20211;-76
2022/05/07 07:57:55;;;;;;;18.48;16.33;;;;;;;18.76;60.85;99967.91;4993875;28;20207;-77
2022/05/07 08:00:21;;;;;;;19.98;17.98;;;;;;;18.90;59.95;99966.78;4989005;28;20210;-76
2022/05/07 08:02:49;;;;;;;19.38;17.35;;;;;;;19.04;59.53;99961.94;4994654;28;20210;-75
2022/05/07 08:05:17;;;;;;;17.55;15.60;;;;;;;19.18;58.77;99964.34;4993561;28;20216;-76
2022/05/07 08:13:14;;;;;;;18.30;16.33;;;;;;;19.19;59.08;99957.88;4994393;28;20561;-76
2022/05/07 08:15:41;;;;;;;22.25;19.95;;;;;;;19.33;58.75;99951.19;4994801;28;20620;-76
2022/05/07 08:18:08;;;;;;;16.73;14.98;;;;;;;19.42;57.89;99953.09;4991400;28;20198;-76
2022/05/07 08:20:36;;;;;;;17.08;15.48;;;;;;;19.51;57.69;99949.53;4984346;28;20280;-75
2022/05/07 08:23:02;;;;;;;17.05;15.25;;;;;;;19.68;56.43;99958.94;4995228;28;20191;-77
2022/05/07 08:25:30;;;;;;;17.25;15.40;;;;;;;19.70;56.60;99951.50;4994677;28;20272;-77
2022/05/07 08:27:57;;;;;;;16.77;14.88;;;;;;;20.04;55.63;99950.31;4995218;28;20233;-76
2022/05/07 08:30:24;;;;;;;16.63;14.93;;;;;;;20.15;55.21;99950.19;4995032;28;20194;-77
2022/05/07 08:32:51;;;;;;;17.48;14.13;;;;;;;20.26;54.55;99957.34;4994196;28;20446;-78
2022/05/07 08:35:18;;;;;;;15.23;13.70;;;;;;;20.44;53.17;99950.16;4994851;28;20224;-77
2022/05/07 08:37:44;;;;;;;13.40;12.17;;;;;;;20.66;52.80;99957.25;4994964;28;20430;-75
2022/05/07 08:40:14;;;;;;;15.07;13.68;;;;;;;20.70;52.39;99955.09;4987176;28;20803;-77
2022/05/07 08:42:42;;;;;;;14.50;12.97;;;;;;;20.74;51.79;99954.66;4994483;28;20293;-77
2022/05/07 08:45:10;;;;;;;14.43;12.90;;;;;;;20.72;51.07;99953.09;4995133;28;20445;-77
2022/05/07 08:47:37;;;;;;;14.53;13.00;;;;;;;20.69;50.91;99956.09;4994017;28;20593;-76
2022/05/07 08:50:05;;;;;;;15.40;13.80;;;;;;;20.73;51.02;99955.66;4994184;28;20551;-77
2022/05/07 08:52:32;;;;;;;15.07;13.67;;;;;;;20.86;50.37;99941.69;4994593;28;20434;-77
2022/05/07 08:54:59;;;;;;;13.27;12.07;;;;;;;20.98;50.27;99946.00;4994538;28;20430;-77
2022/05/07 08:57:26;;;;;;;12.83;11.63;;;;;;;21.23;49.78;99946.31;4994208;28;20452;-77
2022/05/07 08:59:54;;;;;;;13.83;12.00;;;;;;;21.51;47.99;99938.19;4994234;28;20532;-77
2022/05/07 09:02:21;;;;;;;11.30;10.30;;;;;;;21.60;46.85;99935.41;4993728;28;20529;-76
2022/05/07 09:04:55;;;;;;;12.10;10.90;;;;;;;21.76;45.97;99945.69;4993459;28;20450;-77
2022/05/07 09:07:22;;;;;;;9.53;6.63;;;;;;;21.76;43.25;99937.47;4993445;28;20525;-76
2022/05/07 09:09:49;;;;;;;5.43;4.20;;;;;;;21.81;39.58;99943.34;4994120;28;20468;-76
2022/05/07 09:12:23;;;;;;;7.67;4.80;;;;;;;21.72;39.98;99941.53;4993526;28;20427;-77
2022/05/07 09:14:49;;;;;;;6.87;4.30;;;;;;;22.04;39.51;99934.69;4993441;28;20995;-77
2022/05/07 09:17:19;;;;;;;3.83;3.53;;;;;;;21.80;38.88;99941.63;4993798;28;20465;-76
2022/05/07 09:19:46;;;;;;;5.50;4.93;;;;;;;21.61;39.32;99933.50;4993451;28;20458;-78
2022/05/07 09:22:12;;;;;;;7.37;4.10;;;;;;;21.90;39.21;99938.84;4993340;28;20533;-77
2022/05/07 09:24:40;;;;;;;5.20;3.47;;;;;;;22.20;38.28;99929.38;4993756;28;20966;-76
2022/05/07 09:27:07;;;;;;;5.80;4.30;;;;;;;22.33;37.95;99931.78;4993050;28;20490;-77
2022/05/07 09:29:35;;;;;;;9.17;8.20;;;;;;;22.42;36.98;99932.72;4993169;28;20433;-77
2022/05/07 09:32:09;;;;;;;6.73;3.70;;;;;;;22.48;36.94;99932.94;4993734;28;20485;-76
2022/05/07 09:37:35;;;;;;;4.37;3.97;;;;;;;22.54;36.51;99925.94;4993199;28;20557;-76
2022/05/07 09:40:05;;;;;;;3.23;2.93;;;;;;;22.49;36.23;99929.16;4992952;28;20501;-78
2022/05/07 09:42:34;;;;;;;5.53;3.50;;;;;;;22.07;36.97;99926.19;4993182;28;20431;-77
2022/05/07 09:45:01;;;;;;;3.07;2.77;;;;;;;22.50;36.06;99919.09;4992697;28;20431;-76
2022/05/07 09:47:28;;;;;;;4.73;2.80;;;;;;;23.02;35.24;99913.66;4993308;28;21242;-75
2022/05/07 09:57:30;;;;;;;4.97;3.90;;;;;;;22.55;36.75;99922.19;4992906;28;20488;-77
2022/05/07 09:58:17;;;;;;;5.23;3.50;;;;;;;22.74;35.83;99904.66;4993124;28;20496;-78
2022/05/07 10:01:00;;;;;;;3.90;2.90;;;;;;;23.57;34.12;99904.16;4992170;28;20453;-77
2022/05/07 10:03:32;;;;;;;4.37;3.97;;;;;;;24.27;33.44;99908.50;4992625;28;20433;-78
2022/05/07 10:06:20;;;;;;;5.10;3.40;;;;;;;24.12;33.50;99903.63;4992796;28;20428;-75
2022/05/07 10:09:03;;;;;;;3.10;2.80;;;;;;;23.70;33.78;99906.44;4992627;28;20441;-76
2022/05/07 10:11:30;;;;;;;4.00;3.30;;;;;;;23.44;34.17;99898.25;4992901;28;21223;-77
2022/05/07 10:13:58;;;;;;;3.53;2.97;;;;;;;23.20;34.77;99908.13;4992380;28;20506;-78
2022/05/07 10:16:29;;;;;;;3.47;2.73;;;;;;;24.01;33.45;99898.47;4992976;28;20438;-76
2022/05/07 10:18:56;;;;;;;3.80;3.47;;;;;;;23.72;34.04;99898.88;4992366;28;20520;-77
2022/05/07 10:21:24;;;;;;;5.03;3.47;;;;;;;24.44;33.01;99896.44;4992587;28;20803;-76
2022/05/07 10:23:53;;;;;;;5.27;3.17;;;;;;;23.58;33.58;99894.88;4992082;28;20435;-76
2022/05/07 10:26:22;;;;;;;4.50;3.23;;;;;;;23.71;33.68;99889.75;4992526;28;20927;-76
2022/05/07 10:28:49;;;;;;;6.17;3.30;;;;;;;24.24;33.22;99887.69;4992112;28;20585;-75
2022/05/07 10:31:18;;;;;;;4.47;2.83;;;;;;;24.27;32.54;99892.84;4992200;28;20931;-75
2022/05/07 10:33:44;;;;;;;3.20;2.80;;;;;;;23.68;33.58;99884.59;4992561;28;20520;-75
2022/05/07 10:36:12;;;;;;;4.83;2.50;;;;;;;24.43;32.23;99880.13;4991984;28;20537;-77
2022/05/07 10:38:42;;;;;;;8.03;3.20;;;;;;;25.15;31.37;99878.31;4992476;28;20437;-77
2022/05/07 10:41:22;;;;;;;3.23;2.50;;;;;;;25.41;30.91;99879.97;4992584;28;20431;-78
2022/05/07 10:43:49;;;;;;;3.90;2.83;;;;;;;25.17;30.91;99884.53;4992360;28;20441;-76
2022/05/07 10:46:18;;;;;;;3.83;2.63;;;;;;;25.14;31.19;99882.09;4991735;28;20434;-78
2022/05/07 10:48:45;;;;;;;3.67;2.70;;;;;;;24.40;31.82;99877.69;4992220;28;20475;-77
2022/05/07 10:51:19;;;;;;;2.63;2.43;;;;;;;24.38;32.17;99883.41;4991953;28;20541;-77
2022/05/07 10:53:48;;;;;;;3.87;2.93;;;;;;;23.31;34.23;99885.84;4992323;28;20430;-77
2022/05/07 10:56:16;;;;;;;4.30;3.13;;;;;;;23.29;34.02;99884.25;4992454;28;21382;-77
2022/05/07 10:58:47;;;;;;;4.70;3.00;;;;;;;22.46;34.92;99884.75;4995867;28;20599;-77
2022/05/07 11:01:13;;;;;;;3.73;2.90;;;;;;;23.02;34.22;99879.81;4996326;28;20433;-76
2022/05/07 11:03:40;;;;;;;3.60;3.30;;;;;;;23.31;33.83;99874.84;4996015;28;20424;-76
2022/05/07 11:06:07;;;;;;;3.33;2.67;;;;;;;23.72;33.06;99876.88;4995812;28;20442;-77
2022/05/07 11:08:35;;;;;;;6.77;4.20;;;;;;;23.45;33.15;99870.63;4985212;28;20478;-77
2022/05/07 11:11:09;;;;;;;3.80;3.37;;;;;;;23.51;34.01;99863.59;4976841;28;20546;-76
2022/05/07 11:13:39;;;;;;;3.80;2.80;;;;;;;24.00;33.27;99866.50;4976076;28;20497;-76
2022/05/07 11:16:07;;;;;;;3.70;3.40;;;;;;;24.33;32.69;99867.41;4982266;28;20454;-77
2022/05/07 11:18:34;;;;;;;8.33;7.53;;;;;;;24.49;32.38;99858.31;4995729;28;20530;-76
2022/05/07 11:21:02;;;;;;;4.30;3.10;;;;;;;24.10;32.33;99858.09;4995577;28;20435;-77
2022/05/07 11:23:30;;;;;;;4.23;3.27;;;;;;;24.43;32.49;99866.38;4995834;28;20442;-77
2022/05/07 11:25:57;;;;;;;5.00;3.90;;;;;;;24.72;31.76;99854.84;4995800;28;20500;-77
2022/05/07 11:28:25;;;;;;;3.27;2.83;;;;;;;24.49;32.07;99857.44;4995613;28;21042;-77
2022/05/07 11:30:52;;;;;;;3.23;2.90;;;;;;;23.99;32.88;99861.16;4995220;28;20445;-77
2022/05/07 11:33:24;;;;;;;3.67;2.93;;;;;;;23.99;32.66;99856.50;4995184;28;20427;-77
2022/05/07 11:36:00;;;;;;;3.13;2.63;;;;;;;24.17;32.65;99859.13;4995682;28;20415;-77
2022/05/07 11:38:27;;;;;;;3.60;2.77;;;;;;;23.77;32.50;99862.69;4995213;28;20446;-76
2022/05/07 11:40:54;;;;;;;5.47;2.33;;;;;;;23.38;33.24;99853.09;4995610;28;20433;-78
2022/05/07 11:46:07;;;;;;;4.30;2.30;;;;;;;23.28;32.73;99847.69;4995331;28;20409;-77
2022/05/07 11:48:33;;;;;;;3.37;2.70;;;;;;;23.22;33.45;99853.00;4995634;28;20596;-77
2022/05/07 11:51:00;;;;;;;4.27;2.87;;;;;;;22.67;35.19;99846.81;4995104;28;20521;-78